createdAt,value
2023-01-13T00:00:15.767Z,983.50
2023-01-13T00:01:15.723Z,983.46
2023-01-13T00:02:15.710Z,983.47
2023-01-13T00:03:15.687Z,983.47
2023-01-13T00:04:15.714Z,983.51
2023-01-13T00:05:15.658Z,983.48
2023-01-13T00:06:15.673Z,983.56
2023-01-13T00:07:15.635Z,983.40
2023-01-13T00:08:15.629Z,983.52
2023-01-13T00:09:15.621Z,983.46
2023-01-13T00:10:16.598Z,983.52
2023-01-13T00:11:15.616Z,983.45
2023-01-13T00:12:15.576Z,983.55
2023-01-13T00:13:15.573Z,983.45
2023-01-13T00:14:15.564Z,983.38
2023-01-13T00:15:15.551Z,983.48
2023-01-13T00:16:15.682Z,983.46
2023-01-13T00:17:15.534Z,983.44
2023-01-13T00:18:15.531Z,983.49
2023-01-13T00:19:15.555Z,983.45
2023-01-13T00:20:15.503Z,983.46
2023-01-13T00:21:15.514Z,983.41
2023-01-13T00:22:15.515Z,983.52
2023-01-13T00:23:15.477Z,983.48
2023-01-13T00:24:15.469Z,983.46
2023-01-13T00:25:15.469Z,983.41
2023-01-13T00:26:15.474Z,983.37
2023-01-13T00:27:15.441Z,983.37
2023-01-13T00:28:15.428Z,983.44
2023-01-13T00:29:15.436Z,983.38
2023-01-13T00:30:15.405Z,983.41
2023-01-13T00:31:15.479Z,983.36
2023-01-13T00:32:15.379Z,983.34
2023-01-13T00:33:15.375Z,983.37
2023-01-13T00:34:15.368Z,983.36
2023-01-13T00:35:15.366Z,983.29
2023-01-13T00:36:15.355Z,983.31
2023-01-13T00:37:15.345Z,983.30
2023-01-13T00:38:15.344Z,983.24
2023-01-13T00:39:15.340Z,983.26
2023-01-13T00:40:15.306Z,983.27
2023-01-13T00:41:15.328Z,983.20
2023-01-13T00:42:15.289Z,983.30
2023-01-13T00:43:15.281Z,983.24
2023-01-13T00:44:15.273Z,983.22
2023-01-13T00:45:15.257Z,983.25
2023-01-13T00:46:15.336Z,983.17
2023-01-13T00:47:15.249Z,983.19
2023-01-13T00:48:15.226Z,983.15
2023-01-13T00:49:15.223Z,983.14
2023-01-13T00:50:15.207Z,983.11
2023-01-13T00:51:15.232Z,983.14
2023-01-13T00:52:15.193Z,983.14
2023-01-13T00:53:15.193Z,983.03
2023-01-13T00:54:15.166Z,983.07
2023-01-13T00:55:15.154Z,983.08
2023-01-13T00:56:15.175Z,983.14
2023-01-13T00:57:15.142Z,983.08
2023-01-13T00:58:15.129Z,983.16
2023-01-13T00:59:15.115Z,983.15
2023-01-13T01:00:15.110Z,983.15
2023-01-13T01:01:15.260Z,983.14
2023-01-13T01:02:15.182Z,983.09
2023-01-13T01:03:15.081Z,983.05
2023-01-13T01:04:15.054Z,983.07
2023-01-13T01:05:15.061Z,983.10
2023-01-13T01:06:15.066Z,983.03
2023-01-13T01:07:15.038Z,983.02
2023-01-13T01:08:15.019Z,983.05
2023-01-13T01:09:15.017Z,983.07
2023-01-13T01:10:15.008Z,983.12
2023-01-13T01:11:15.020Z,983.05
2023-01-13T01:12:14.990Z,983.05
2023-01-13T01:13:15.976Z,983.10
2023-01-13T01:14:14.968Z,983.06
2023-01-13T01:15:14.953Z,983.09
2023-01-13T01:16:15.004Z,983.01
2023-01-13T01:17:14.938Z,983.12
2023-01-13T01:18:14.925Z,983.03
2023-01-13T01:19:16.359Z,983.11
2023-01-13T01:20:14.897Z,983.10
2023-01-13T01:21:14.924Z,983.08
2023-01-13T01:22:14.884Z,983.09
2023-01-13T01:23:14.881Z,983.07
2023-01-13T01:24:14.867Z,983.07
2023-01-13T01:25:14.858Z,983.09
2023-01-13T01:26:14.869Z,983.05
2023-01-13T01:27:14.837Z,983.00
2023-01-13T01:28:14.817Z,983.10
2023-01-13T01:29:14.826Z,983.01
2023-01-13T01:30:14.846Z,983.07
2023-01-13T01:31:14.825Z,983.07
2023-01-13T01:32:14.805Z,983.02
2023-01-13T01:33:14.779Z,982.97
2023-01-13T01:34:14.765Z,982.96
2023-01-13T01:35:14.759Z,983.01
2023-01-13T01:36:14.746Z,983.06
2023-01-13T01:37:14.754Z,983.05
2023-01-13T01:38:14.724Z,983.00
2023-01-13T01:39:14.717Z,983.04
2023-01-13T01:40:14.710Z,983.02
2023-01-13T01:41:14.722Z,983.04
2023-01-13T01:42:14.775Z,983.04
2023-01-13T01:43:14.698Z,983.02
2023-01-13T01:44:14.673Z,982.99
2023-01-13T01:45:14.660Z,982.98
2023-01-13T01:46:14.682Z,982.93
2023-01-13T01:47:14.676Z,983.00
2023-01-13T01:48:14.628Z,982.97
2023-01-13T01:49:14.626Z,982.94
2023-01-13T01:50:14.617Z,982.94
2023-01-13T01:51:14.606Z,982.95
2023-01-13T01:52:14.614Z,982.94
2023-01-13T01:53:14.584Z,982.88
2023-01-13T01:54:14.578Z,982.95
2023-01-13T01:55:14.633Z,982.86
2023-01-13T01:56:14.554Z,982.95
2023-01-13T01:57:14.570Z,982.87
2023-01-13T01:58:14.540Z,982.86
2023-01-13T01:59:14.529Z,982.92
2023-01-13T02:00:14.511Z,982.82
2023-01-13T02:01:14.587Z,982.85
2023-01-13T02:02:14.598Z,982.82
2023-01-13T02:03:14.481Z,982.82
2023-01-13T02:04:14.482Z,982.74
2023-01-13T02:05:14.491Z,982.82
2023-01-13T02:06:14.446Z,982.80
2023-01-13T02:07:14.460Z,982.72
2023-01-13T02:08:14.451Z,982.78
2023-01-13T02:09:14.426Z,982.68
2023-01-13T02:10:14.410Z,982.73
2023-01-13T02:11:14.408Z,982.71
2023-01-13T02:12:14.418Z,982.66
2023-01-13T02:13:14.408Z,982.68
2023-01-13T02:14:14.371Z,982.61
2023-01-13T02:15:14.361Z,982.68
2023-01-13T02:16:14.394Z,982.51
2023-01-13T02:17:14.382Z,982.61
2023-01-13T02:18:14.327Z,982.55
2023-01-13T02:19:14.329Z,982.57
2023-01-13T02:20:14.326Z,982.57
2023-01-13T02:21:15.305Z,982.57
2023-01-13T02:22:14.314Z,982.53
2023-01-13T02:23:14.293Z,982.59
2023-01-13T02:24:14.270Z,982.57
2023-01-13T02:25:14.282Z,982.57
2023-01-13T02:26:14.248Z,982.58
2023-01-13T02:27:14.262Z,982.50
2023-01-13T02:28:14.259Z,982.50
2023-01-13T02:29:14.226Z,982.46
2023-01-13T02:30:14.199Z,982.49
2023-01-13T02:31:14.253Z,982.48
2023-01-13T02:32:14.231Z,982.49
2023-01-13T02:33:14.190Z,982.46
2023-01-13T02:34:14.159Z,982.46
2023-01-13T02:35:14.160Z,982.39
2023-01-13T02:36:14.151Z,982.38
2023-01-13T02:37:14.164Z,982.42
2023-01-13T02:38:14.123Z,982.43
2023-01-13T02:39:14.136Z,982.36
2023-01-13T02:40:14.127Z,982.43
2023-01-13T02:41:14.097Z,982.36
2023-01-13T02:42:14.114Z,982.47
2023-01-13T02:43:14.089Z,982.39
2023-01-13T02:44:15.022Z,982.40
2023-01-13T02:45:14.062Z,982.46
2023-01-13T02:46:14.044Z,982.46
2023-01-13T02:47:14.057Z,982.41
2023-01-13T02:48:14.058Z,982.46
2023-01-13T02:49:14.016Z,982.31
2023-01-13T02:50:13.999Z,982.38
2023-01-13T02:51:13.996Z,982.31
2023-01-13T02:52:14.009Z,982.30
2023-01-13T02:53:13.983Z,982.32
2023-01-13T02:54:13.958Z,982.32
2023-01-13T02:55:13.984Z,982.35
2023-01-13T02:56:13.949Z,982.32
2023-01-13T02:57:13.976Z,982.31
2023-01-13T02:58:13.917Z,982.25
2023-01-13T02:59:13.920Z,982.32
2023-01-13T03:00:13.800Z,982.25
2023-01-13T03:01:13.858Z,982.20
2023-01-13T03:02:13.989Z,982.18
2023-01-13T03:03:13.766Z,982.15
2023-01-13T03:04:13.767Z,982.17
2023-01-13T03:05:13.739Z,982.20
2023-01-13T03:06:14.731Z,982.20
2023-01-13T03:07:13.762Z,982.23
2023-01-13T03:08:13.723Z,982.22
2023-01-13T03:09:13.713Z,982.28
2023-01-13T03:10:13.714Z,982.29
2023-01-13T03:11:13.693Z,982.26
2023-01-13T03:12:13.701Z,982.31
2023-01-13T03:13:13.677Z,982.34
2023-01-13T03:14:13.662Z,982.22
2023-01-13T03:15:13.671Z,982.34
2023-01-13T03:16:13.732Z,982.38
2023-01-13T03:17:13.651Z,982.45
2023-01-13T03:18:13.615Z,982.49
2023-01-13T03:19:13.664Z,982.53
2023-01-13T03:20:13.616Z,982.74
2023-01-13T03:21:13.594Z,982.79
2023-01-13T03:22:13.600Z,982.85
2023-01-13T03:23:13.571Z,982.82
2023-01-13T03:24:13.555Z,982.85
2023-01-13T03:25:13.550Z,982.96
2023-01-13T03:26:13.530Z,983.04
2023-01-13T03:27:13.554Z,983.02
2023-01-13T03:28:13.525Z,983.22
2023-01-13T03:29:13.520Z,983.10
2023-01-13T03:30:13.497Z,983.10
2023-01-13T03:31:13.495Z,983.08
2023-01-13T03:32:13.504Z,983.12
2023-01-13T03:33:13.480Z,983.10
2023-01-13T03:34:13.458Z,983.06
2023-01-13T03:35:13.461Z,983.03
2023-01-13T03:36:13.443Z,983.01
2023-01-13T03:37:13.434Z,982.99
2023-01-13T03:38:13.451Z,983.09
2023-01-13T03:39:13.413Z,983.17
2023-01-13T03:40:13.411Z,983.05
2023-01-13T03:41:13.396Z,983.06
2023-01-13T03:42:13.388Z,983.00
2023-01-13T03:43:13.398Z,982.92
2023-01-13T03:44:13.363Z,982.95
2023-01-13T03:45:13.354Z,983.17
2023-01-13T03:46:13.367Z,983.00
2023-01-13T03:47:13.336Z,983.04
2023-01-13T03:48:13.338Z,983.14
2023-01-13T03:49:13.336Z,983.19
2023-01-13T03:50:13.318Z,983.18
2023-01-13T03:51:13.299Z,983.26
2023-01-13T03:52:13.314Z,983.18
2023-01-13T03:53:13.297Z,983.25
2023-01-13T03:54:13.262Z,983.24
2023-01-13T03:55:13.256Z,983.25
2023-01-13T03:56:13.256Z,983.24
2023-01-13T03:57:13.251Z,983.20
2023-01-13T03:58:13.295Z,983.19
2023-01-13T03:59:13.215Z,983.20
2023-01-13T04:00:13.210Z,982.90
2023-01-13T04:01:13.348Z,983.10
2023-01-13T04:02:13.319Z,983.05
2023-01-13T04:03:13.205Z,983.01
2023-01-13T04:04:13.170Z,982.90
2023-01-13T04:05:13.157Z,983.00
2023-01-13T04:06:13.146Z,983.00
2023-01-13T04:07:13.132Z,982.99
2023-01-13T04:08:13.179Z,982.93
2023-01-13T04:09:13.124Z,982.99
2023-01-13T04:10:13.112Z,983.06
2023-01-13T04:11:13.135Z,983.00
2023-01-13T04:12:13.088Z,983.02
2023-01-13T04:13:13.102Z,982.97
2023-01-13T04:14:13.058Z,983.03
2023-01-13T04:15:13.066Z,983.05
2023-01-13T04:16:13.077Z,983.02
2023-01-13T04:17:13.044Z,983.09
2023-01-13T04:18:13.043Z,983.03
2023-01-13T04:19:13.015Z,982.91
2023-01-13T04:20:13.007Z,983.00
2023-01-13T04:21:13.001Z,982.97
2023-01-13T04:22:12.984Z,982.84
2023-01-13T04:23:12.994Z,982.80
2023-01-13T04:24:12.966Z,982.80
2023-01-13T04:25:12.956Z,982.94
2023-01-13T04:26:12.936Z,982.89
2023-01-13T04:27:12.935Z,982.97
2023-01-13T04:28:12.943Z,983.05
2023-01-13T04:29:15.463Z,983.05
2023-01-13T04:30:13.901Z,982.92
2023-01-13T04:31:12.969Z,982.84
2023-01-13T04:32:12.885Z,982.87
2023-01-13T04:33:12.897Z,982.88
2023-01-13T04:34:12.885Z,982.96
2023-01-13T04:35:12.862Z,982.84
2023-01-13T04:36:12.841Z,982.82
2023-01-13T04:37:12.831Z,982.85
2023-01-13T04:38:12.858Z,982.88
2023-01-13T04:39:12.817Z,982.87
2023-01-13T04:40:12.806Z,982.90
2023-01-13T04:41:12.794Z,982.85
2023-01-13T04:42:12.782Z,982.85
2023-01-13T04:43:12.801Z,982.89
2023-01-13T04:44:12.773Z,982.72
2023-01-13T04:45:12.761Z,982.65
2023-01-13T04:46:12.764Z,982.52
2023-01-13T04:47:12.756Z,982.62
2023-01-13T04:48:12.758Z,982.72
2023-01-13T04:49:12.711Z,982.88
2023-01-13T04:50:12.729Z,982.85
2023-01-13T04:51:12.689Z,982.90
2023-01-13T04:53:53.565Z,982.97
2023-01-13T04:54:53.543Z,983.02
2023-01-13T04:55:53.536Z,983.05
2023-01-13T04:56:53.516Z,983.01
2023-01-13T04:57:53.536Z,983.06
2023-01-13T04:58:53.503Z,983.02
2023-01-13T04:59:53.485Z,982.98
2023-01-13T05:00:53.486Z,982.96
2023-01-13T05:01:53.549Z,982.91
2023-01-13T05:02:54.597Z,983.00
2023-01-13T05:03:54.567Z,982.92
2023-01-13T05:04:54.604Z,982.91
2023-01-13T05:05:54.559Z,982.79
2023-01-13T05:06:54.535Z,982.76
2023-01-13T05:07:54.553Z,982.68
2023-01-13T05:08:54.527Z,982.73
2023-01-13T05:09:54.514Z,982.72
2023-01-13T05:10:54.500Z,982.75
2023-01-13T05:11:54.491Z,982.64
2023-01-13T05:12:54.495Z,982.62
2023-01-13T05:13:54.464Z,982.71
2023-01-13T05:14:54.462Z,982.78
2023-01-13T05:15:54.458Z,982.78
2023-01-13T05:16:54.439Z,982.84
2023-01-13T05:17:54.473Z,982.83
2023-01-13T05:18:54.445Z,982.91
2023-01-13T05:19:54.400Z,982.91
2023-01-13T05:20:54.417Z,982.92
2023-01-13T05:21:54.391Z,982.75
2023-01-13T05:22:54.407Z,982.77
2023-01-13T05:23:54.364Z,982.70
2023-01-13T05:24:54.357Z,982.68
2023-01-13T05:25:54.347Z,982.81
2023-01-13T05:26:54.335Z,982.91
2023-01-13T05:27:54.321Z,982.91
2023-01-13T05:28:54.330Z,982.94
2023-01-13T05:29:54.311Z,982.91
2023-01-13T05:30:54.318Z,982.99
2023-01-13T05:31:54.303Z,983.09
2023-01-13T05:32:54.311Z,983.19
2023-01-13T05:33:54.307Z,983.24
2023-01-13T05:34:54.252Z,983.26
2023-01-13T05:35:54.240Z,983.34
2023-01-13T05:36:54.229Z,983.28
2023-01-13T05:37:54.224Z,983.37
2023-01-13T05:38:54.243Z,983.37
2023-01-13T05:39:54.194Z,983.39
2023-01-13T05:40:54.192Z,983.40
2023-01-13T05:41:54.186Z,983.37
2023-01-13T05:42:54.171Z,983.39
2023-01-13T05:43:54.173Z,983.31
2023-01-13T05:44:54.148Z,983.34
2023-01-13T05:45:54.147Z,983.47
2023-01-13T05:46:54.173Z,983.57
2023-01-13T05:47:54.114Z,983.58
2023-01-13T05:48:54.130Z,983.40
2023-01-13T05:49:54.107Z,983.43
2023-01-13T05:50:54.122Z,983.40
2023-01-13T05:51:54.071Z,983.43
2023-01-13T05:52:54.066Z,983.36
2023-01-13T05:53:54.083Z,983.39
2023-01-13T05:54:54.043Z,983.21
2023-01-13T05:55:54.037Z,982.97
2023-01-13T05:56:54.025Z,982.75
2023-01-13T05:57:54.025Z,982.73
2023-01-13T05:58:54.759Z,982.61
2023-01-13T05:59:53.982Z,982.49
2023-01-13T06:00:54.014Z,982.42
2023-01-13T06:01:53.974Z,982.56
2023-01-13T06:02:54.009Z,982.67
2023-01-13T06:03:53.963Z,982.75
2023-01-13T06:04:53.951Z,982.90
2023-01-13T06:05:53.930Z,982.95
2023-01-13T06:06:53.918Z,983.06
2023-01-13T06:07:53.910Z,983.21
2023-01-13T06:08:53.929Z,983.36
2023-01-13T06:09:53.895Z,983.29
2023-01-13T06:10:53.884Z,983.29
2023-01-13T06:11:53.867Z,983.33
2023-01-13T06:12:53.878Z,983.33
2023-01-13T06:13:53.873Z,983.43
2023-01-13T06:14:53.844Z,983.42
2023-01-13T06:15:53.863Z,983.38
2023-01-13T06:16:53.824Z,983.36
2023-01-13T06:17:53.839Z,983.33
2023-01-13T06:18:53.829Z,983.34
2023-01-13T06:19:53.790Z,983.33
2023-01-13T06:20:53.786Z,983.23
2023-01-13T06:21:53.770Z,983.24
2023-01-13T06:22:53.784Z,983.27
2023-01-13T06:23:53.776Z,983.36
2023-01-13T06:24:53.747Z,983.57
2023-01-13T06:25:53.730Z,983.65
2023-01-13T06:26:53.719Z,983.58
2023-01-13T06:27:53.708Z,983.54
2023-01-13T06:28:53.713Z,983.56
2023-01-13T06:29:53.687Z,983.54
2023-01-13T06:30:53.678Z,983.50
2023-01-13T06:31:53.709Z,983.52
2023-01-13T06:32:53.649Z,983.58
2023-01-13T06:33:53.656Z,983.55
2023-01-13T06:34:53.626Z,983.53
2023-01-13T06:35:53.623Z,983.50
2023-01-13T06:36:53.617Z,983.24
2023-01-13T06:37:53.601Z,983.12
2023-01-13T06:38:53.612Z,983.16
2023-01-13T06:39:53.576Z,983.14
2023-01-13T06:40:53.568Z,983.10
2023-01-13T06:41:53.562Z,983.16
2023-01-13T06:42:53.541Z,983.11
2023-01-13T06:43:53.557Z,983.05
2023-01-13T06:44:53.533Z,983.04
2023-01-13T06:45:53.525Z,983.03
2023-01-13T06:46:53.599Z,983.00
2023-01-13T06:47:53.496Z,982.97
2023-01-13T06:48:53.503Z,982.91
2023-01-13T06:49:53.477Z,982.96
2023-01-13T06:50:53.471Z,982.88
2023-01-13T06:51:53.452Z,982.76
2023-01-13T06:52:53.445Z,982.63
2023-01-13T06:53:53.453Z,982.69
2023-01-13T06:54:53.416Z,982.86
2023-01-13T06:55:53.401Z,983.01
2023-01-13T06:56:53.395Z,983.06
2023-01-13T06:57:53.378Z,983.10
2023-01-13T06:58:53.405Z,983.09
2023-01-13T06:59:53.360Z,983.13
2023-01-13T07:00:53.441Z,983.11
2023-01-13T07:01:53.605Z,983.10
2023-01-13T07:02:53.402Z,983.09
2023-01-13T07:03:53.330Z,983.09
2023-01-13T07:04:53.297Z,983.09
2023-01-13T07:05:53.291Z,983.12
2023-01-13T07:06:53.272Z,983.06
2023-01-13T07:07:53.269Z,983.14
2023-01-13T07:08:53.279Z,983.14
2023-01-13T07:09:53.249Z,983.17
2023-01-13T07:10:53.264Z,983.25
2023-01-13T07:11:53.235Z,983.31
2023-01-13T07:12:53.210Z,983.27
2023-01-13T07:13:53.225Z,983.36
2023-01-13T07:14:53.179Z,983.45
2023-01-13T07:15:53.172Z,983.48
2023-01-13T07:16:53.171Z,983.47
2023-01-13T07:17:53.157Z,983.50
2023-01-13T07:18:53.168Z,983.50
2023-01-13T07:19:53.197Z,983.51
2023-01-13T07:20:53.120Z,983.66
2023-01-13T07:21:53.131Z,983.63
2023-01-13T07:22:53.099Z,983.65
2023-01-13T07:23:53.119Z,983.68
2023-01-13T07:24:53.077Z,983.66
2023-01-13T07:25:53.055Z,983.59
2023-01-13T07:26:53.026Z,983.63
2023-01-13T07:27:53.036Z,983.61
2023-01-13T07:28:53.041Z,983.60
2023-01-13T07:29:53.016Z,983.49
2023-01-13T07:30:53.012Z,983.39
2023-01-13T07:31:53.022Z,983.45
2023-01-13T07:32:52.994Z,983.45
2023-01-13T07:33:53.007Z,983.41
2023-01-13T07:34:52.952Z,983.48
2023-01-13T07:35:52.955Z,983.43
2023-01-13T07:36:52.938Z,983.42
2023-01-13T07:37:52.931Z,983.49
2023-01-13T07:38:54.832Z,983.52
2023-01-13T07:39:52.903Z,983.51
2023-01-13T07:40:52.903Z,983.53
2023-01-13T07:41:52.895Z,983.45
2023-01-13T07:42:52.857Z,983.48
2023-01-13T07:43:52.881Z,983.39
2023-01-13T07:44:52.856Z,983.47
2023-01-13T07:45:52.909Z,983.54
2023-01-13T07:46:52.827Z,983.54
2023-01-13T07:47:52.820Z,983.51
2023-01-13T07:48:52.824Z,983.55
2023-01-13T07:49:52.815Z,983.50
2023-01-13T07:50:52.783Z,983.51
2023-01-13T07:51:52.800Z,983.51
2023-01-13T07:52:52.760Z,983.55
2023-01-13T07:53:52.763Z,983.49
2023-01-13T07:54:52.743Z,983.47
2023-01-13T07:55:52.727Z,983.41
2023-01-13T07:56:52.712Z,983.44
2023-01-13T07:57:52.699Z,983.51
2023-01-13T07:58:52.716Z,983.41
2023-01-13T07:59:52.719Z,983.48
2023-01-13T08:00:52.805Z,983.38
2023-01-13T08:01:52.859Z,983.41
2023-01-13T08:02:52.683Z,983.40
2023-01-13T08:03:52.632Z,983.44
2023-01-13T08:04:52.642Z,983.43
2023-01-13T08:05:52.602Z,983.44
2023-01-13T08:06:52.614Z,983.46
2023-01-13T08:07:52.586Z,983.48
2023-01-13T08:08:52.579Z,983.58
2023-01-13T08:09:52.586Z,983.54
2023-01-13T08:10:52.581Z,983.54
2023-01-13T08:11:52.536Z,983.49
2023-01-13T08:12:57.001Z,983.55
2023-01-13T08:13:52.509Z,983.49
2023-01-13T08:14:52.525Z,983.55
2023-01-13T08:15:52.511Z,983.57
2023-01-13T08:16:52.523Z,983.70
2023-01-13T08:17:52.473Z,983.70
2023-01-13T08:18:52.470Z,983.70
2023-01-13T08:19:52.478Z,983.85
2023-01-13T08:20:52.555Z,983.79
2023-01-13T08:21:52.443Z,983.81
2023-01-13T08:22:52.429Z,983.88
2023-01-13T08:23:52.409Z,983.81
2023-01-13T08:24:52.418Z,983.85
2023-01-13T08:25:52.385Z,983.81
2023-01-13T08:26:52.380Z,983.80
2023-01-13T08:27:52.367Z,983.85
2023-01-13T08:28:52.391Z,983.85
2023-01-13T08:29:52.361Z,983.87
2023-01-13T08:30:52.388Z,983.84
2023-01-13T08:31:52.334Z,983.93
2023-01-13T08:32:52.313Z,983.91
2023-01-13T08:33:52.302Z,983.93
2023-01-13T08:34:52.326Z,983.94
2023-01-13T08:35:52.277Z,983.97
2023-01-13T08:36:52.278Z,983.98
2023-01-13T08:37:52.265Z,984.00
2023-01-13T08:38:52.247Z,983.98
2023-01-13T08:39:52.238Z,983.98
2023-01-13T08:40:52.219Z,984.01
2023-01-13T08:41:52.217Z,983.95
2023-01-13T08:42:52.193Z,983.99
2023-01-13T08:43:52.214Z,984.02
2023-01-13T08:44:52.202Z,983.98
2023-01-13T08:45:52.187Z,983.91
2023-01-13T08:46:52.151Z,984.06
2023-01-13T08:47:52.135Z,984.08
2023-01-13T08:48:52.165Z,984.04
2023-01-13T08:49:52.138Z,984.09
2023-01-13T08:50:52.102Z,984.11
2023-01-13T08:51:52.113Z,984.08
2023-01-13T08:52:52.726Z,983.98
2023-01-13T08:53:52.066Z,983.95
2023-01-13T08:54:52.091Z,983.90
2023-01-13T08:55:52.055Z,983.96
2023-01-13T08:56:52.083Z,983.91
2023-01-13T08:57:53.078Z,983.90
2023-01-13T08:58:52.050Z,983.88
2023-01-13T08:59:52.044Z,983.81
2023-01-13T09:00:52.205Z,983.84
2023-01-13T09:01:52.066Z,983.87
2023-01-13T09:02:51.969Z,983.82
2023-01-13T09:03:51.960Z,983.85
2023-01-13T09:04:51.964Z,983.84
2023-01-13T09:05:51.948Z,983.92
2023-01-13T09:06:51.939Z,983.90
2023-01-13T09:07:51.931Z,983.92
2023-01-13T09:08:52.722Z,983.91
2023-01-13T09:09:51.903Z,983.89
2023-01-13T09:10:51.878Z,983.95
2023-01-13T09:11:51.873Z,984.01
2023-01-13T09:12:51.877Z,984.01
2023-01-13T09:13:51.866Z,983.92
2023-01-13T09:14:51.858Z,983.96
2023-01-13T09:15:51.911Z,983.92
2023-01-13T09:16:51.817Z,983.96
2023-01-13T09:17:51.819Z,983.98
2023-01-13T09:18:51.804Z,983.96
2023-01-13T09:19:51.822Z,983.98
2023-01-13T09:20:51.840Z,983.97
2023-01-13T09:21:51.761Z,983.87
2023-01-13T09:22:51.759Z,984.02
2023-01-13T09:23:51.745Z,984.11
2023-01-13T09:24:51.776Z,984.09
2023-01-13T09:25:51.732Z,984.13
2023-01-13T09:26:51.720Z,984.22
2023-01-13T09:27:51.714Z,984.16
2023-01-13T09:28:51.697Z,984.16
2023-01-13T09:29:51.712Z,984.18
2023-01-13T09:30:51.692Z,984.16
2023-01-13T09:31:51.669Z,984.14
2023-01-13T09:32:51.655Z,984.16
2023-01-13T09:33:51.639Z,984.12
2023-01-13T09:34:51.657Z,984.16
2023-01-13T09:35:52.628Z,984.09
2023-01-13T09:36:51.642Z,984.09
2023-01-13T09:37:51.603Z,984.11
2023-01-13T09:38:51.592Z,984.11
2023-01-13T09:39:51.608Z,984.12
2023-01-13T09:40:51.578Z,984.08
2023-01-13T09:41:51.563Z,984.10
2023-01-13T09:42:51.552Z,984.20
2023-01-13T09:43:51.547Z,984.13
2023-01-13T09:44:51.566Z,984.17
2023-01-13T09:45:51.527Z,984.31
2023-01-13T09:46:51.515Z,984.20
2023-01-13T09:47:51.501Z,984.20
2023-01-13T09:48:51.494Z,984.17
2023-01-13T09:49:51.492Z,984.18
2023-01-13T09:50:51.485Z,984.12
2023-01-13T09:51:51.465Z,984.19
2023-01-13T09:52:51.473Z,984.21
2023-01-13T09:53:51.439Z,984.27
2023-01-13T09:54:51.456Z,984.31
2023-01-13T09:55:51.430Z,984.35
2023-01-13T09:56:51.413Z,984.35
2023-01-13T09:57:51.388Z,984.36
2023-01-13T09:58:51.387Z,984.33
2023-01-13T09:59:51.397Z,984.35
2023-01-13T10:00:51.369Z,984.33
2023-01-13T10:01:51.386Z,984.41
2023-01-13T10:02:51.355Z,984.46
2023-01-13T10:03:51.411Z,984.51
2023-01-13T10:04:51.429Z,984.49
2023-01-13T10:05:51.310Z,984.52
2023-01-13T10:06:51.315Z,984.51
2023-01-13T10:07:51.306Z,984.47
2023-01-13T10:08:51.300Z,984.31
2023-01-13T10:09:51.292Z,984.54
2023-01-13T10:10:51.268Z,984.45
2023-01-13T10:11:51.263Z,984.34
2023-01-13T10:12:51.242Z,984.40
2023-01-13T10:13:51.267Z,984.42
2023-01-13T10:14:51.245Z,984.48
2023-01-13T10:15:51.230Z,984.52
2023-01-13T10:16:51.215Z,984.52
2023-01-13T10:17:51.187Z,984.62
2023-01-13T10:18:51.189Z,984.62
2023-01-13T10:19:51.197Z,984.59
2023-01-13T10:20:51.168Z,984.57
2023-01-13T10:21:51.149Z,984.63
2023-01-13T10:22:51.147Z,984.51
2023-01-13T10:23:51.132Z,984.59
2023-01-13T10:24:51.145Z,984.55
2023-01-13T10:25:51.145Z,984.52
2023-01-13T10:26:51.109Z,984.49
2023-01-13T10:27:51.091Z,984.46
2023-01-13T10:28:52.077Z,984.47
2023-01-13T10:29:51.098Z,984.26
2023-01-13T10:30:51.070Z,984.37
2023-01-13T10:31:51.059Z,984.18
2023-01-13T10:32:51.060Z,984.33
2023-01-13T10:33:51.035Z,984.36
2023-01-13T10:34:51.074Z,984.37
2023-01-13T10:35:51.018Z,984.42
2023-01-13T10:36:51.011Z,984.40
2023-01-13T10:37:50.994Z,984.30
2023-01-13T10:38:50.988Z,984.44
2023-01-13T10:39:51.001Z,984.37
2023-01-13T10:40:50.970Z,984.39
2023-01-13T10:41:50.949Z,984.41
2023-01-13T10:42:50.942Z,984.38
2023-01-13T10:43:50.938Z,984.35
2023-01-13T10:44:50.967Z,984.40
2023-01-13T10:45:50.904Z,984.33
2023-01-13T10:46:52.023Z,984.35
2023-01-13T10:47:50.889Z,984.31
2023-01-13T10:48:50.877Z,984.35
2023-01-13T10:49:50.897Z,984.40
2023-01-13T10:50:50.875Z,984.42
2023-01-13T10:51:50.974Z,984.48
2023-01-13T10:53:23.239Z,984.41
2023-01-13T10:53:50.879Z,984.48
2023-01-13T10:54:50.840Z,984.38
2023-01-13T10:55:52.959Z,984.44
2023-01-13T10:56:50.807Z,984.44
2023-01-13T10:57:50.795Z,984.46
2023-01-13T10:58:50.783Z,984.58
2023-01-13T10:59:50.778Z,984.41
2023-01-13T11:00:50.793Z,984.44
2023-01-13T11:01:53.739Z,984.36
2023-01-13T11:02:50.764Z,984.42
2023-01-13T11:03:50.731Z,984.39
2023-01-13T11:04:50.773Z,984.49
2023-01-13T11:05:50.726Z,984.35
2023-01-13T11:06:50.703Z,984.42
2023-01-13T11:07:50.694Z,984.45
2023-01-13T11:08:50.708Z,984.38
2023-01-13T11:09:50.670Z,984.48
2023-01-13T11:10:50.693Z,984.39
2023-01-13T11:11:50.641Z,984.35
2023-01-13T11:12:53.259Z,984.30
2023-01-13T11:13:50.638Z,984.45
2023-01-13T11:14:50.632Z,984.28
2023-01-13T11:15:50.638Z,984.40
2023-01-13T11:16:53.717Z,984.43
2023-01-13T11:17:51.595Z,984.50
2023-01-13T11:18:50.582Z,984.48
2023-01-13T11:19:50.560Z,984.49
2023-01-13T11:20:50.607Z,984.42
2023-01-13T11:21:50.561Z,984.50
2023-01-13T11:22:50.546Z,984.42
2023-01-13T11:23:50.530Z,984.47
2023-01-13T11:24:51.008Z,984.41
2023-01-13T11:25:51.544Z,984.43
2023-01-13T11:26:50.502Z,984.48
2023-01-13T11:27:50.487Z,984.44
2023-01-13T11:28:50.477Z,984.49
2023-01-13T11:29:50.474Z,984.48
2023-01-13T11:30:50.907Z,984.53
2023-01-13T11:31:51.458Z,984.58
2023-01-13T11:32:50.455Z,984.59
2023-01-13T11:33:50.436Z,984.54
2023-01-13T11:34:50.429Z,984.53
2023-01-13T11:35:50.436Z,984.52
2023-01-13T11:36:50.401Z,984.51
2023-01-13T11:37:50.413Z,984.50
2023-01-13T11:38:50.384Z,984.36
2023-01-13T11:39:50.388Z,984.41
2023-01-13T11:40:50.382Z,984.42
2023-01-13T11:41:50.344Z,984.42
2023-01-13T11:42:50.343Z,984.55
2023-01-13T11:43:50.320Z,984.52
2023-01-13T11:44:50.319Z,984.60
2023-01-13T11:45:50.388Z,984.52
2023-01-13T11:46:50.362Z,984.63
2023-01-13T11:47:50.288Z,984.57
2023-01-13T11:48:50.286Z,984.70
2023-01-13T11:49:50.272Z,984.61
2023-01-13T11:50:50.281Z,984.65
2023-01-13T11:51:50.263Z,984.60
2023-01-13T11:52:50.239Z,984.65
2023-01-13T11:53:50.236Z,984.65
2023-01-13T11:54:50.233Z,984.59
2023-01-13T11:55:50.227Z,984.48
2023-01-13T11:56:50.209Z,984.56
2023-01-13T11:57:50.193Z,984.61
2023-01-13T11:58:51.317Z,984.57
2023-01-13T11:59:51.178Z,984.60
2023-01-13T12:00:50.187Z,984.49
2023-01-13T12:01:50.197Z,984.54
2023-01-13T12:02:50.188Z,984.51
2023-01-13T12:03:50.139Z,984.53
2023-01-13T12:04:50.131Z,984.58
2023-01-13T12:05:50.134Z,984.61
2023-01-13T12:06:50.107Z,984.54
2023-01-13T12:07:50.097Z,984.47
2023-01-13T12:08:50.104Z,984.47
2023-01-13T12:09:50.081Z,984.51
2023-01-13T12:10:50.094Z,984.49
2023-01-13T12:11:50.060Z,984.45
2023-01-13T12:12:50.055Z,984.36
2023-01-13T12:13:50.051Z,984.47
2023-01-13T12:14:50.028Z,984.46
2023-01-13T12:15:50.028Z,984.46
2023-01-13T12:16:50.043Z,984.50
2023-01-13T12:17:50.012Z,984.49
2023-01-13T12:18:49.988Z,984.62
2023-01-13T12:19:49.976Z,984.60
2023-01-13T12:20:49.992Z,984.44
2023-01-13T12:21:49.958Z,984.40
2023-01-13T12:22:49.952Z,984.53
2023-01-13T12:23:49.927Z,984.54
2023-01-13T12:24:49.927Z,984.49
2023-01-13T12:25:49.940Z,984.41
2023-01-13T12:26:49.912Z,984.44
2023-01-13T12:27:49.893Z,984.39
2023-01-13T12:28:49.953Z,984.41
2023-01-13T12:29:49.875Z,984.35